createdAt,value
2019-01-26T00:00:34.317Z,24.20
2019-01-26T00:03:02.906Z,25.87
2019-01-26T00:05:31.555Z,23.73
2019-01-26T00:08:00.243Z,27.97
2019-01-26T00:10:29.070Z,28.03
2019-01-26T00:12:58.478Z,28.90
2019-01-26T00:15:27.119Z,27.77
2019-01-26T00:17:56.434Z,24.67
2019-01-26T00:20:24.947Z,25.90
2019-01-26T00:22:53.822Z,27.40
2019-01-26T00:25:22.446Z,27.93
2019-01-26T00:27:51.163Z,28.90
2019-01-26T00:30:19.833Z,29.47
2019-01-26T00:32:48.438Z,30.37
2019-01-26T00:35:17.702Z,32.33
2019-01-26T00:37:46.186Z,30.17
2019-01-26T00:40:15.130Z,29.20
2019-01-26T00:42:43.717Z,29.83
2019-01-26T00:45:18.946Z,29.67
2019-01-26T00:47:48.966Z,30.17
2019-01-26T00:50:17.707Z,31.47
2019-01-26T00:52:46.222Z,27.97
2019-01-26T00:55:14.765Z,31.00
2019-01-26T00:57:43.681Z,30.10
2019-01-26T01:00:14.698Z,29.98
2019-01-26T01:02:44.194Z,28.03
2019-01-26T01:05:12.851Z,28.70
2019-01-26T01:07:41.575Z,28.97
2019-01-26T01:10:11.688Z,28.03
2019-01-26T01:12:40.297Z,30.10
2019-01-26T01:15:10.183Z,28.17
2019-01-26T01:17:38.741Z,30.27
2019-01-26T01:22:50.461Z,27.90
2019-01-26T01:25:19.033Z,28.33
2019-01-26T01:27:47.614Z,30.57
2019-01-26T01:30:18.465Z,31.43
2019-01-26T01:32:47.053Z,30.13
2019-01-26T01:35:15.704Z,29.90
2019-01-26T01:37:46.875Z,29.87
2019-01-26T01:40:15.646Z,29.63
2019-01-26T01:42:44.181Z,27.13
2019-01-26T01:45:15.337Z,23.23
2019-01-26T01:47:43.920Z,30.00
2019-01-26T01:50:12.464Z,30.07
2019-01-26T01:52:41.106Z,30.63
2019-01-26T01:55:09.773Z,28.87
2019-01-26T01:57:38.373Z,31.33
2019-01-26T02:00:12.245Z,27.27
2019-01-26T02:02:40.717Z,30.43
2019-01-26T02:05:09.253Z,28.70
2019-01-26T02:07:37.893Z,29.53
2019-01-26T02:10:07.604Z,30.43
2019-01-26T02:12:37.001Z,26.70
2019-01-26T02:15:05.953Z,28.63
2019-01-26T02:17:34.777Z,29.50
2019-01-26T02:20:04.283Z,29.27
2019-01-26T02:22:33.573Z,28.10
2019-01-26T02:25:02.294Z,28.93
2019-01-26T02:27:30.761Z,28.43
2019-01-26T02:30:01.238Z,29.80
2019-01-26T02:32:29.817Z,29.37
2019-01-26T02:34:58.957Z,29.87
2019-01-26T02:37:27.485Z,28.77
2019-01-26T02:39:55.992Z,30.37
2019-01-26T02:42:24.467Z,29.03
2019-01-26T02:44:53.193Z,29.50
2019-01-26T02:47:21.697Z,29.92
2019-01-26T02:49:50.164Z,28.67
2019-01-26T02:52:18.646Z,30.10
2019-01-26T02:54:47.217Z,30.27
2019-01-26T02:57:16.102Z,29.70
2019-01-26T02:59:45.021Z,29.07
2019-01-26T03:02:13.506Z,29.50
2019-01-26T03:04:42.157Z,29.87
2019-01-26T03:07:10.808Z,29.60
2019-01-26T03:09:39.329Z,29.27
2019-01-26T03:12:07.858Z,28.70
2019-01-26T03:14:36.849Z,29.10
2019-01-26T03:17:06.555Z,25.57
2019-01-26T03:19:34.862Z,25.77
2019-01-26T03:22:03.737Z,27.33
2019-01-26T03:24:32.621Z,29.23
2019-01-26T03:27:01.389Z,26.60
2019-01-26T03:29:29.893Z,29.67
2019-01-26T03:31:58.374Z,29.73
2019-01-26T03:34:26.913Z,27.07
2019-01-26T03:36:55.421Z,26.83
2019-01-26T03:39:24.037Z,27.20
2019-01-26T03:41:53.413Z,27.97
2019-01-26T03:44:22.176Z,27.53
2019-01-26T03:46:50.670Z,28.60
2019-01-26T03:49:19.329Z,25.20
2019-01-26T03:51:48.909Z,26.93
2019-01-26T03:54:17.413Z,27.10
2019-01-26T03:56:45.929Z,23.83
2019-01-26T03:59:15.341Z,24.60
2019-01-26T04:01:44.001Z,27.73
2019-01-26T04:09:51.158Z,25.40
2019-01-26T04:12:20.021Z,26.00
2019-01-26T04:14:48.606Z,25.80
2019-01-26T04:17:22.013Z,25.90
2019-01-26T04:19:46.181Z,26.40
2019-01-26T04:22:14.757Z,28.13
2019-01-26T04:24:43.706Z,22.17
2019-01-26T04:27:12.280Z,26.70
2019-01-26T04:29:40.741Z,26.03
2019-01-26T04:32:09.229Z,25.93
2019-01-26T04:34:37.957Z,26.33
2019-01-26T04:37:06.477Z,27.40
2019-01-26T04:39:35.139Z,25.33
2019-01-26T04:42:03.823Z,27.33
2019-01-26T04:44:32.325Z,26.53
2019-01-26T04:47:00.830Z,24.83
2019-01-26T04:49:31.069Z,24.77
2019-01-26T04:51:59.537Z,26.27
2019-01-26T04:54:28.383Z,25.80
2019-01-26T04:56:57.026Z,24.17
2019-01-26T04:59:25.558Z,24.53
2019-01-26T05:01:54.064Z,25.53
2019-01-26T05:04:22.557Z,25.20
2019-01-26T05:06:51.072Z,26.13
2019-01-26T05:09:43.889Z,25.53
2019-01-26T05:12:12.529Z,24.27
2019-01-26T05:14:41.019Z,26.53
2019-01-26T05:17:09.822Z,23.27
2019-01-26T05:19:38.333Z,27.87
2019-01-26T05:22:06.809Z,26.80
2019-01-26T05:24:35.298Z,26.63
2019-01-26T05:27:03.926Z,27.70
2019-01-26T05:29:32.518Z,24.33
2019-01-26T05:32:01.102Z,26.43
2019-01-26T05:34:29.733Z,25.37
2019-01-26T05:36:58.308Z,25.80
2019-01-26T05:39:26.854Z,24.97
2019-01-26T05:41:55.813Z,25.60
2019-01-26T05:44:24.531Z,27.80
2019-01-26T05:46:53.201Z,26.90
2019-01-26T05:49:21.688Z,26.40
2019-01-26T05:51:50.201Z,23.80
2019-01-26T05:54:18.709Z,26.87
2019-01-26T05:56:47.213Z,25.27
2019-01-26T05:59:16.005Z,25.00
2019-01-26T06:01:44.541Z,25.27
2019-01-26T06:04:13.301Z,22.67
2019-01-26T06:06:41.856Z,26.47
2019-01-26T06:09:10.353Z,25.97
2019-01-26T06:11:40.153Z,26.40
2019-01-26T06:14:08.686Z,24.93
2019-01-26T06:16:37.188Z,24.83
2019-01-26T06:19:05.665Z,26.57
2019-01-26T06:21:34.314Z,24.07
2019-01-26T06:24:03.585Z,23.17
2019-01-26T06:26:32.200Z,23.30
2019-01-26T06:29:00.681Z,23.43
2019-01-26T06:31:29.180Z,22.50
2019-01-26T06:33:57.712Z,21.77
2019-01-26T06:36:26.448Z,22.37
2019-01-26T06:38:55.344Z,19.47
2019-01-26T06:41:23.852Z,21.07
2019-01-26T06:43:52.352Z,21.37
2019-01-26T06:46:21.005Z,18.67
2019-01-26T06:48:50.149Z,19.13
2019-01-26T06:51:18.621Z,19.27
2019-01-26T06:53:47.140Z,18.97
2019-01-26T06:56:15.645Z,19.40
2019-01-26T06:58:45.106Z,17.43
2019-01-26T07:01:13.620Z,19.62
2019-01-26T07:03:42.100Z,18.90
2019-01-26T07:06:18.000Z,20.37
2019-01-26T07:08:46.492Z,16.43
2019-01-26T07:11:15.001Z,20.43
2019-01-26T07:13:43.867Z,15.97
2019-01-26T07:16:13.184Z,16.97
2019-01-26T07:18:42.776Z,19.70
2019-01-26T07:21:11.592Z,21.27
2019-01-26T07:23:40.161Z,21.43
2019-01-26T07:26:08.673Z,20.67
2019-01-26T07:28:37.264Z,21.63
2019-01-26T07:31:06.619Z,18.83
2019-01-26T07:33:34.444Z,19.80
2019-01-26T07:36:03.068Z,19.80
2019-01-26T07:38:33.704Z,20.80
2019-01-26T07:41:02.723Z,19.70
2019-01-26T07:43:31.487Z,20.60
2019-01-26T07:46:12.916Z,21.03
2019-01-26T07:48:49.544Z,19.97
2019-01-26T07:51:27.363Z,21.93
2019-01-26T07:53:58.263Z,20.10
2019-01-26T07:56:34.736Z,20.83
2019-01-26T07:59:05.348Z,21.83
2019-01-26T08:01:34.403Z,22.83
2019-01-26T08:04:03.689Z,19.23
2019-01-26T08:06:42.595Z,19.63
2019-01-26T08:09:13.491Z,21.07
2019-01-26T08:11:42.580Z,21.47
2019-01-26T08:14:11.415Z,21.60
2019-01-26T08:16:42.371Z,21.77
2019-01-26T08:19:11.063Z,20.70
2019-01-26T08:21:41.567Z,22.10
2019-01-26T08:24:10.647Z,23.05
2019-01-26T08:26:40.367Z,23.60
2019-01-26T08:29:09.299Z,21.10
2019-01-26T08:31:37.862Z,21.23
2019-01-26T08:34:10.463Z,22.06
2019-01-26T08:36:39.535Z,20.20
2019-01-26T08:39:08.559Z,22.17
2019-01-26T08:41:37.175Z,22.03
2019-01-26T08:44:07.922Z,23.53
2019-01-26T08:46:36.475Z,21.03
2019-01-26T08:49:05.586Z,21.93
2019-01-26T08:51:34.231Z,20.87
2019-01-26T08:54:03.507Z,21.63
2019-01-26T08:56:32.166Z,22.77
2019-01-26T08:59:00.708Z,24.30
2019-01-26T09:01:29.382Z,22.77
2019-01-26T09:04:04.342Z,23.53
2019-01-26T09:06:36.466Z,21.83
2019-01-26T09:09:10.162Z,26.87
2019-01-26T09:12:09.638Z,23.27
2019-01-26T09:14:38.194Z,21.60
2019-01-26T09:17:06.674Z,20.47
2019-01-26T09:19:38.188Z,22.67
2019-01-26T09:22:04.859Z,24.73
2019-01-26T09:24:33.343Z,19.43
2019-01-26T09:27:01.844Z,26.57
2019-01-26T09:29:30.643Z,24.43
2019-01-26T09:31:59.244Z,24.57
2019-01-26T09:34:27.753Z,24.63
2019-01-26T09:36:56.371Z,24.77
2019-01-26T09:39:25.492Z,24.53
2019-01-26T09:41:54.064Z,25.83
2019-01-26T09:44:22.916Z,22.53
2019-01-26T09:46:51.383Z,25.37
2019-01-26T09:49:19.887Z,27.50
2019-01-26T09:51:48.447Z,27.83
2019-01-26T09:55:52.343Z,28.73
2019-01-26T09:58:24.455Z,24.50
2019-01-26T10:01:01.155Z,26.83
2019-01-26T10:06:22.835Z,23.97
2019-01-26T10:08:51.355Z,26.90
2019-01-26T10:11:19.851Z,27.17
2019-01-26T10:13:48.687Z,29.17
2019-01-26T10:16:17.570Z,24.77
2019-01-26T10:18:46.129Z,25.67
2019-01-26T10:21:14.740Z,27.60
2019-01-26T10:23:43.319Z,27.03
2019-01-26T10:26:11.903Z,26.17
2019-01-26T10:28:40.419Z,29.50
2019-01-26T10:31:09.527Z,30.37
2019-01-26T10:33:38.019Z,27.50
2019-01-26T10:36:25.648Z,24.13
2019-01-26T10:39:00.400Z,27.43
2019-01-26T10:41:33.384Z,25.90
2019-01-26T10:44:02.131Z,26.93
2019-01-26T10:46:30.981Z,28.10
2019-01-26T10:49:00.816Z,28.67
2019-01-26T10:51:28.360Z,28.63
2019-01-26T10:53:56.917Z,27.90
2019-01-26T10:56:25.417Z,28.90
2019-01-26T10:58:53.981Z,30.83
2019-01-26T11:01:24.518Z,29.13
2019-01-26T11:03:53.049Z,28.57
2019-01-26T11:06:21.656Z,26.17
2019-01-26T11:08:50.393Z,29.17
2019-01-26T11:11:20.089Z,28.50
2019-01-26T11:13:48.856Z,29.50
2019-01-26T11:16:17.452Z,27.90
2019-01-26T11:18:46.293Z,27.60
2019-01-26T11:21:14.952Z,27.15
2019-01-26T11:23:47.276Z,29.80
2019-01-26T11:26:15.885Z,29.50
2019-01-26T11:28:44.518Z,27.80
2019-01-26T11:31:13.106Z,27.80
2019-01-26T11:33:41.704Z,27.63
2019-01-26T11:36:10.413Z,31.27
2019-01-26T11:38:39.296Z,30.47
2019-01-26T11:41:07.830Z,28.50
2019-01-26T11:43:36.667Z,30.17
2019-01-26T11:46:10.471Z,29.67
2019-01-26T11:48:42.752Z,28.73
2019-01-26T11:51:17.480Z,29.57
2019-01-26T11:53:46.029Z,27.93
2019-01-26T11:56:19.607Z,28.80
2019-01-26T11:58:48.272Z,31.00
2019-01-26T12:01:21.071Z,31.60
2019-01-26T12:03:54.727Z,30.00
2019-01-26T12:06:27.167Z,29.60
2019-01-26T12:08:55.851Z,28.30
2019-01-26T12:11:24.654Z,28.97
2019-01-26T12:13:53.174Z,30.27
2019-01-26T12:16:26.856Z,31.50
2019-01-26T12:18:50.683Z,30.60
2019-01-26T12:22:22.002Z,29.60
2019-01-26T12:24:50.875Z,30.67
2019-01-26T12:27:19.820Z,31.33
2019-01-26T12:29:48.436Z,31.07
2019-01-26T12:32:16.942Z,31.60
2019-01-26T12:34:45.935Z,34.20
2019-01-26T12:37:14.600Z,36.07
2019-01-26T12:39:43.309Z,34.00
2019-01-26T12:42:12.140Z,31.60
2019-01-26T12:44:40.760Z,32.53
2019-01-26T12:47:09.563Z,32.17
2019-01-26T12:50:09.037Z,33.07
2019-01-26T12:52:37.766Z,31.63
2019-01-26T12:55:07.754Z,32.47
2019-01-26T12:57:36.374Z,34.70
2019-01-26T13:00:06.635Z,33.57
2019-01-26T13:02:35.238Z,34.57
2019-01-26T13:05:05.215Z,34.00
2019-01-26T13:07:33.794Z,34.07
2019-01-26T13:10:02.483Z,35.67
2019-01-26T13:12:31.115Z,36.87
2019-01-26T13:14:59.683Z,33.27
2019-01-26T13:17:28.250Z,31.90
2019-01-26T13:19:56.869Z,35.20
2019-01-26T13:22:25.702Z,33.20
2019-01-26T13:24:54.693Z,33.87
2019-01-26T13:27:28.010Z,33.63
2019-01-26T13:29:56.578Z,33.80
2019-01-26T13:32:25.329Z,33.97
2019-01-26T13:34:55.012Z,31.80
2019-01-26T13:37:22.513Z,35.47
2019-01-26T13:39:51.014Z,35.73
2019-01-26T13:42:19.530Z,34.47
2019-01-26T13:44:48.046Z,35.57
2019-01-26T13:47:16.586Z,34.67
2019-01-26T13:49:45.474Z,33.73
2019-01-26T13:52:14.009Z,33.97
2019-01-26T13:54:42.801Z,33.63
2019-01-26T13:57:11.355Z,36.97
2019-01-26T13:59:39.865Z,36.00
2019-01-26T14:02:08.663Z,34.93
2019-01-26T14:04:38.681Z,36.47
2019-01-26T14:07:06.110Z,34.83
2019-01-26T14:09:36.249Z,33.90
2019-01-26T14:12:04.969Z,36.30
2019-01-26T14:14:33.465Z,37.03
2019-01-26T14:17:02.377Z,36.93
2019-01-26T14:19:31.185Z,35.40
2019-01-26T14:21:59.701Z,38.13
2019-01-26T14:24:28.337Z,40.50
2019-01-26T14:26:58.205Z,38.67
2019-01-26T14:29:27.385Z,36.07
2019-01-26T14:31:55.874Z,36.63
2019-01-26T14:34:24.402Z,37.97
2019-01-26T14:36:52.966Z,41.70
2019-01-26T14:39:21.612Z,39.17
2019-01-26T14:41:50.126Z,41.20
2019-01-26T14:44:18.993Z,39.70
2019-01-26T14:46:47.502Z,36.20
2019-01-26T14:49:16.026Z,37.53
2019-01-26T14:51:45.223Z,35.73
2019-01-26T14:54:14.178Z,35.67
2019-01-26T14:56:42.742Z,35.67
2019-01-26T14:59:11.245Z,35.77
2019-01-26T15:01:39.796Z,39.60
2019-01-26T15:04:08.805Z,39.73
2019-01-26T15:06:41.989Z,39.70
2019-01-26T15:09:10.573Z,39.60
2019-01-26T15:11:39.096Z,39.93
2019-01-26T15:14:07.700Z,39.47
2019-01-26T15:16:36.394Z,40.70
2019-01-26T15:20:07.733Z,41.40
2019-01-26T15:22:36.253Z,41.47
2019-01-26T15:25:05.301Z,40.27
2019-01-26T15:27:34.189Z,40.57
2019-01-26T15:30:02.705Z,41.30
2019-01-26T15:32:31.361Z,40.50
2019-01-26T15:35:00.454Z,41.20
2019-01-26T15:37:29.005Z,39.13
2019-01-26T15:39:57.985Z,38.00
2019-01-26T15:42:26.582Z,40.03
2019-01-26T15:44:55.334Z,38.27
2019-01-26T15:47:23.947Z,37.87
2019-01-26T15:49:52.807Z,37.90
2019-01-26T15:52:21.368Z,36.40
2019-01-26T15:54:49.999Z,37.83
2019-01-26T15:57:18.510Z,37.60
2019-01-26T15:59:53.271Z,37.70
2019-01-26T16:02:16.366Z,38.70
2019-01-26T16:04:46.954Z,40.53
2019-01-26T16:07:16.642Z,41.33
2019-01-26T16:09:45.120Z,39.83
2019-01-26T16:12:13.652Z,36.70
2019-01-26T16:14:44.110Z,37.80
2019-01-26T16:17:12.966Z,40.13
2019-01-26T16:20:20.091Z,38.50
2019-01-26T16:22:42.262Z,35.37
2019-01-26T16:25:10.862Z,36.50
2019-01-26T16:27:39.822Z,36.70
2019-01-26T16:30:11.849Z,36.27
2019-01-26T16:32:40.718Z,38.27
2019-01-26T16:35:11.092Z,35.30
2019-01-26T16:37:39.594Z,37.70
2019-01-26T16:40:10.266Z,41.47
2019-01-26T16:42:39.491Z,40.77
2019-01-26T16:45:11.454Z,41.67
2019-01-26T16:47:40.022Z,41.93
2019-01-26T16:50:11.737Z,41.70
2019-01-26T16:52:40.207Z,42.63
2019-01-26T16:55:10.124Z,41.83
2019-01-26T16:57:38.710Z,39.43
2019-01-26T17:00:13.058Z,41.53
2019-01-26T17:02:41.990Z,42.63
2019-01-26T17:05:10.560Z,41.93
2019-01-26T17:07:39.060Z,43.30
2019-01-26T17:10:09.486Z,41.20
2019-01-26T17:12:38.275Z,39.00
2019-01-26T17:15:08.025Z,42.27
2019-01-26T17:17:36.557Z,41.53
2019-01-26T17:20:07.773Z,40.27
2019-01-26T17:22:36.298Z,40.03
2019-01-26T17:25:04.913Z,42.07
2019-01-26T17:27:33.445Z,42.83
2019-01-26T17:30:01.957Z,41.40
2019-01-26T17:32:30.473Z,41.03
2019-01-26T17:34:58.971Z,40.43
2019-01-26T17:37:27.447Z,43.53
2019-01-26T17:39:57.594Z,44.70
2019-01-26T17:42:26.085Z,41.07
2019-01-26T17:44:54.789Z,44.17
2019-01-26T17:47:23.609Z,41.20
2019-01-26T17:49:52.198Z,42.77
2019-01-26T17:52:20.660Z,41.17
2019-01-26T17:54:49.460Z,40.43
2019-01-26T17:57:18.225Z,38.00
2019-01-26T17:59:46.861Z,38.70
2019-01-26T18:02:15.416Z,42.43
2019-01-26T18:04:43.972Z,38.07
2019-01-26T18:07:12.478Z,38.80
2019-01-26T18:09:40.965Z,39.10
2019-01-26T18:12:09.496Z,39.43
2019-01-26T18:14:38.588Z,37.93
2019-01-26T18:17:07.136Z,36.70
2019-01-26T18:19:35.600Z,37.73
2019-01-26T18:22:04.804Z,43.63
2019-01-26T18:24:33.268Z,39.33
2019-01-26T18:27:01.764Z,39.97
2019-01-26T18:29:30.524Z,34.70
2019-01-26T18:31:59.148Z,35.90
2019-01-26T18:34:27.612Z,34.43
2019-01-26T18:36:56.456Z,31.13
2019-01-26T18:39:24.928Z,33.43
2019-01-26T18:41:53.836Z,31.13
2019-01-26T18:44:22.543Z,28.93
2019-01-26T18:46:51.052Z,29.50
2019-01-26T18:49:19.552Z,29.20
2019-01-26T18:51:48.388Z,28.20
2019-01-26T18:54:16.872Z,30.30
2019-01-26T18:56:45.340Z,28.60
2019-01-26T18:59:13.852Z,30.17
2019-01-26T19:01:42.404Z,29.33
2019-01-26T19:04:18.547Z,29.17
2019-01-26T19:06:47.087Z,27.90
2019-01-26T19:09:15.573Z,32.47
2019-01-26T19:11:44.233Z,31.17
2019-01-26T19:14:12.744Z,30.33
2019-01-26T19:16:41.614Z,29.27
2019-01-26T19:19:10.157Z,33.40
2019-01-26T19:21:38.693Z,31.40
2019-01-26T19:24:08.107Z,29.20
2019-01-26T19:26:36.630Z,32.30
2019-01-26T19:29:05.346Z,30.10
2019-01-26T19:31:33.920Z,31.57
2019-01-26T19:34:02.436Z,33.07
2019-01-26T19:36:30.956Z,32.63
2019-01-26T19:38:59.456Z,33.73
2019-01-26T19:41:27.951Z,33.20
2019-01-26T19:43:56.436Z,34.03
2019-01-26T19:46:24.960Z,31.10
2019-01-26T19:48:53.435Z,30.77
2019-01-26T19:51:21.928Z,32.30
2019-01-26T19:53:50.657Z,33.00
2019-01-26T19:56:19.247Z,33.87
2019-01-26T19:58:47.767Z,35.20
2019-01-26T20:01:16.363Z,36.50
2019-01-26T20:03:45.431Z,35.57
2019-01-26T20:06:14.239Z,36.43
2019-01-26T20:08:44.618Z,36.50
2019-01-26T20:11:13.146Z,35.67
2019-01-26T20:13:41.656Z,36.37
2019-01-26T20:16:10.223Z,37.17
2019-01-26T20:18:39.034Z,38.33
2019-01-26T20:21:07.570Z,37.13
2019-01-26T20:23:36.210Z,37.37
2019-01-26T20:26:04.959Z,39.50
2019-01-26T20:28:33.510Z,40.00
2019-01-26T20:31:02.087Z,42.67
2019-01-26T20:33:30.566Z,40.77
2019-01-26T20:35:59.775Z,38.93
2019-01-26T20:38:28.546Z,40.93
2019-01-26T20:40:57.234Z,40.70
2019-01-26T20:43:25.862Z,43.03
2019-01-26T20:45:54.370Z,44.90
2019-01-26T20:48:22.919Z,48.87
2019-01-26T20:50:51.438Z,42.00
2019-01-26T20:53:19.926Z,45.03
2019-01-26T20:55:48.599Z,43.53
2019-01-26T20:58:17.478Z,42.00
2019-01-26T21:00:46.006Z,44.60
2019-01-26T21:03:14.514Z,45.70
2019-01-26T21:05:43.038Z,42.50
2019-01-26T21:08:11.674Z,46.63
2019-01-26T21:10:40.303Z,45.10
2019-01-26T21:13:15.970Z,43.03
2019-01-26T21:15:37.910Z,43.73
2019-01-26T21:18:06.431Z,41.27
2019-01-26T21:20:35.498Z,42.30
2019-01-26T21:23:04.938Z,43.27
2019-01-26T21:25:33.458Z,42.60
2019-01-26T21:28:02.670Z,40.73
2019-01-26T21:30:31.202Z,40.03
2019-01-26T21:33:00.042Z,40.77
2019-01-26T21:35:28.557Z,38.80
2019-01-26T21:37:57.508Z,37.40
2019-01-26T21:40:28.474Z,39.13
2019-01-26T21:42:57.010Z,38.33
2019-01-26T21:45:25.554Z,36.60
2019-01-26T21:47:54.446Z,35.57
2019-01-26T21:50:25.189Z,38.47
2019-01-26T21:52:53.706Z,34.10
2019-01-26T21:55:22.286Z,34.70
2019-01-26T21:57:50.799Z,31.47
2019-01-26T22:00:22.347Z,32.87
2019-01-26T22:02:50.891Z,31.13
2019-01-26T22:05:19.434Z,34.00
2019-01-26T22:07:48.173Z,33.00
2019-01-26T22:10:17.866Z,33.23
2019-01-26T22:12:46.467Z,32.33
2019-01-26T22:15:17.011Z,31.93
2019-01-26T22:17:45.643Z,31.80
2019-01-26T22:20:16.880Z,33.90
2019-01-26T22:22:45.679Z,32.73
2019-01-26T22:25:14.332Z,31.33
2019-01-26T22:27:42.979Z,31.33
2019-01-26T22:30:14.595Z,32.50
2019-01-26T22:32:43.271Z,33.70
2019-01-26T22:35:11.840Z,31.87
2019-01-26T22:37:40.343Z,33.60
2019-01-26T22:40:11.976Z,31.20
2019-01-26T22:42:40.575Z,30.97
2019-01-26T22:45:10.091Z,30.33
2019-01-26T22:47:38.907Z,31.63
2019-01-26T22:50:09.286Z,28.67
2019-01-26T22:52:37.820Z,29.87
2019-01-26T22:55:08.163Z,27.43
2019-01-26T22:57:37.063Z,25.97
2019-01-26T23:00:12.475Z,26.27
2019-01-26T23:02:41.007Z,26.47
2019-01-26T23:05:21.327Z,25.97
2019-01-26T23:07:53.443Z,25.70
2019-01-26T23:10:47.858Z,24.43
2019-01-26T23:13:23.749Z,26.47
2019-01-26T23:16:03.502Z,27.23
2019-01-26T23:18:46.741Z,29.10
2019-01-26T23:21:28.362Z,29.07
2019-01-26T23:26:11.718Z,27.90
2019-01-26T23:28:52.889Z,29.03
2019-01-26T23:31:21.866Z,30.97
2019-01-26T23:33:51.993Z,28.67
2019-01-26T23:36:20.541Z,31.17
2019-01-26T23:38:49.038Z,33.67
2019-01-26T23:41:17.658Z,34.43
2019-01-26T23:43:46.193Z,34.27
2019-01-26T23:46:14.760Z,33.77
2019-01-26T23:48:43.475Z,34.97
2019-01-26T23:51:12.011Z,35.47
2019-01-26T23:53:40.819Z,34.83
2019-01-26T23:56:09.331Z,33.97
2019-01-26T23:58:37.848Z,32.17
